sensor_id;sensor_type;location;lat;lon;timestamp;P1;durP1;ratioP1;P2;durP2;ratioP2
29044;SDS011;16133;49.486;12.176;2023-04-03T00:00:49;8.65;;;3.72;;
29044;SDS011;16133;49.486;12.176;2023-04-03T00:03:15;7.30;;;3.88;;
29044;SDS011;16133;49.486;12.176;2023-04-03T00:05:41;8.02;;;3.70;;
29044;SDS011;16133;49.486;12.176;2023-04-03T00:08:06;6.05;;;3.20;;
29044;SDS011;16133;49.486;12.176;2023-04-03T00:10:34;5.60;;;3.60;;
29044;SDS011;16133;49.486;12.176;2023-04-03T00:13:00;5.78;;;3.92;;
29044;SDS011;16133;49.486;12.176;2023-04-03T00:15:26;10.20;;;3.95;;
29044;SDS011;16133;49.486;12.176;2023-04-03T00:17:51;6.50;;;3.50;;
29044;SDS011;16133;49.486;12.176;2023-04-03T00:20:17;6.20;;;3.75;;
29044;SDS011;16133;49.486;12.176;2023-04-03T00:22:42;8.40;;;4.00;;
29044;SDS011;16133;49.486;12.176;2023-04-03T00:25:08;5.32;;;3.88;;
29044;SDS011;16133;49.486;12.176;2023-04-03T00:27:35;5.53;;;3.55;;
29044;SDS011;16133;49.486;12.176;2023-04-03T00:30:03;6.47;;;3.65;;
29044;SDS011;16133;49.486;12.176;2023-04-03T00:32:29;8.63;;;3.83;;
29044;SDS011;16133;49.486;12.176;2023-04-03T00:34:55;9.02;;;4.55;;
29044;SDS011;16133;49.486;12.176;2023-04-03T00:37:20;8.90;;;3.63;;
29044;SDS011;16133;49.486;12.176;2023-04-03T00:39:45;6.75;;;4.30;;
29044;SDS011;16133;49.486;12.176;2023-04-03T00:42:11;6.47;;;4.18;;
29044;SDS011;16133;49.486;12.176;2023-04-03T00:47:02;9.32;;;4.30;;
29044;SDS011;16133;49.486;12.176;2023-04-03T00:49:30;9.88;;;4.15;;
29044;SDS011;16133;49.486;12.176;2023-04-03T00:51:56;6.05;;;4.10;;
29044;SDS011;16133;49.486;12.176;2023-04-03T00:54:23;10.05;;;4.40;;
29044;SDS011;16133;49.486;12.176;2023-04-03T00:56:50;6.68;;;4.28;;
29044;SDS011;16133;49.486;12.176;2023-04-03T00:59:21;7.50;;;4.10;;
29044;SDS011;16133;49.486;12.176;2023-04-03T01:04:30;6.88;;;3.88;;
29044;SDS011;16133;49.486;12.176;2023-04-03T01:06:58;6.45;;;3.95;;
29044;SDS011;16133;49.486;12.176;2023-04-03T01:09:27;8.07;;;4.72;;
29044;SDS011;16133;49.486;12.176;2023-04-03T01:11:53;5.82;;;3.88;;
29044;SDS011;16133;49.486;12.176;2023-04-03T01:14:19;14.25;;;7.25;;
29044;SDS011;16133;49.486;12.176;2023-04-03T01:16:54;11.07;;;6.45;;
29044;SDS011;16133;49.486;12.176;2023-04-03T01:19:20;7.97;;;4.63;;
29044;SDS011;16133;49.486;12.176;2023-04-03T01:21:53;6.45;;;3.97;;
29044;SDS011;16133;49.486;12.176;2023-04-03T01:24:39;7.43;;;4.03;;
29044;SDS011;16133;49.486;12.176;2023-04-03T01:27:06;6.28;;;3.88;;
29044;SDS011;16133;49.486;12.176;2023-04-03T01:29:34;5.82;;;3.63;;
29044;SDS011;16133;49.486;12.176;2023-04-03T01:32:00;7.85;;;4.32;;
29044;SDS011;16133;49.486;12.176;2023-04-03T01:34:27;6.50;;;3.95;;
29044;SDS011;16133;49.486;12.176;2023-04-03T01:36:53;5.68;;;3.58;;
29044;SDS011;16133;49.486;12.176;2023-04-03T01:39:19;8.02;;;4.68;;
29044;SDS011;16133;49.486;12.176;2023-04-03T01:41:45;8.48;;;3.58;;
29044;SDS011;16133;49.486;12.176;2023-04-03T01:44:11;6.70;;;3.85;;
29044;SDS011;16133;49.486;12.176;2023-04-03T01:46:36;5.78;;;3.85;;
29044;SDS011;16133;49.486;12.176;2023-04-03T01:49:02;6.78;;;3.97;;
29044;SDS011;16133;49.486;12.176;2023-04-03T01:51:29;7.35;;;4.30;;
29044;SDS011;16133;49.486;12.176;2023-04-03T01:53:55;6.28;;;4.05;;
29044;SDS011;16133;49.486;12.176;2023-04-03T01:56:20;8.93;;;3.85;;
29044;SDS011;16133;49.486;12.176;2023-04-03T01:58:46;6.18;;;4.10;;
29044;SDS011;16133;49.486;12.176;2023-04-03T02:01:11;5.18;;;3.33;;
29044;SDS011;16133;49.486;12.176;2023-04-03T02:03:36;8.90;;;4.10;;
29044;SDS011;16133;49.486;12.176;2023-04-03T02:06:02;9.20;;;3.88;;
29044;SDS011;16133;49.486;12.176;2023-04-03T02:08:27;7.85;;;4.93;;
29044;SDS011;16133;49.486;12.176;2023-04-03T02:10:53;10.60;;;4.20;;
29044;SDS011;16133;49.486;12.176;2023-04-03T02:13:18;8.05;;;4.68;;
29044;SDS011;16133;49.486;12.176;2023-04-03T02:15:44;7.55;;;4.72;;
29044;SDS011;16133;49.486;12.176;2023-04-03T02:18:10;9.75;;;5.05;;
29044;SDS011;16133;49.486;12.176;2023-04-03T02:20:36;8.15;;;4.18;;
29044;SDS011;16133;49.486;12.176;2023-04-03T02:23:01;8.95;;;4.05;;
29044;SDS011;16133;49.486;12.176;2023-04-03T02:25:28;8.10;;;4.30;;
29044;SDS011;16133;49.486;12.176;2023-04-03T02:27:53;8.52;;;4.25;;
29044;SDS011;16133;49.486;12.176;2023-04-03T02:30:18;6.35;;;3.95;;
29044;SDS011;16133;49.486;12.176;2023-04-03T02:32:44;7.60;;;4.30;;
29044;SDS011;16133;49.486;12.176;2023-04-03T02:35:10;6.43;;;3.83;;
29044;SDS011;16133;49.486;12.176;2023-04-03T02:37:36;6.07;;;3.80;;
29044;SDS011;16133;49.486;12.176;2023-04-03T02:40:02;5.50;;;3.72;;
29044;SDS011;16133;49.486;12.176;2023-04-03T02:42:28;6.78;;;4.25;;
29044;SDS011;16133;49.486;12.176;2023-04-03T02:44:54;7.13;;;3.70;;
29044;SDS011;16133;49.486;12.176;2023-04-03T02:47:20;6.72;;;3.85;;
29044;SDS011;16133;49.486;12.176;2023-04-03T02:49:45;6.95;;;3.55;;
29044;SDS011;16133;49.486;12.176;2023-04-03T02:52:11;6.35;;;4.30;;
29044;SDS011;16133;49.486;12.176;2023-04-03T02:54:37;8.27;;;4.55;;
29044;SDS011;16133;49.486;12.176;2023-04-03T02:57:03;5.82;;;4.20;;
29044;SDS011;16133;49.486;12.176;2023-04-03T02:59:28;7.95;;;4.75;;
29044;SDS011;16133;49.486;12.176;2023-04-03T03:01:54;10.30;;;4.32;;
29044;SDS011;16133;49.486;12.176;2023-04-03T03:04:20;10.20;;;4.43;;
29044;SDS011;16133;49.486;12.176;2023-04-03T03:06:46;6.25;;;4.32;;
29044;SDS011;16133;49.486;12.176;2023-04-03T03:09:12;9.00;;;4.07;;
29044;SDS011;16133;49.486;12.176;2023-04-03T03:11:38;8.00;;;4.18;;
29044;SDS011;16133;49.486;12.176;2023-04-03T03:14:03;7.10;;;3.92;;
29044;SDS011;16133;49.486;12.176;2023-04-03T03:16:29;9.35;;;5.35;;
29044;SDS011;16133;49.486;12.176;2023-04-03T03:18:54;9.02;;;5.53;;
29044;SDS011;16133;49.486;12.176;2023-04-03T03:21:20;8.95;;;4.13;;
29044;SDS011;16133;49.486;12.176;2023-04-03T03:23:45;7.00;;;3.92;;
29044;SDS011;16133;49.486;12.176;2023-04-03T03:26:11;7.88;;;4.15;;
29044;SDS011;16133;49.486;12.176;2023-04-03T03:28:37;10.30;;;4.25;;
29044;SDS011;16133;49.486;12.176;2023-04-03T03:31:04;10.07;;;4.70;;
29044;SDS011;16133;49.486;12.176;2023-04-03T03:33:30;6.20;;;4.05;;
29044;SDS011;16133;49.486;12.176;2023-04-03T03:35:56;8.32;;;3.83;;
29044;SDS011;16133;49.486;12.176;2023-04-03T03:38:22;6.78;;;4.03;;
29044;SDS011;16133;49.486;12.176;2023-04-03T03:40:48;9.38;;;4.75;;
29044;SDS011;16133;49.486;12.176;2023-04-03T03:43:14;7.05;;;4.03;;
29044;SDS011;16133;49.486;12.176;2023-04-03T03:45:40;6.00;;;4.10;;
29044;SDS011;16133;49.486;12.176;2023-04-03T03:48:06;12.13;;;4.63;;
29044;SDS011;16133;49.486;12.176;2023-04-03T03:50:31;6.38;;;3.90;;
29044;SDS011;16133;49.486;12.176;2023-04-03T03:52:57;9.40;;;4.97;;
29044;SDS011;16133;49.486;12.176;2023-04-03T03:55:22;6.68;;;4.15;;
29044;SDS011;16133;49.486;12.176;2023-04-03T03:57:47;9.65;;;3.70;;
29044;SDS011;16133;49.486;12.176;2023-04-03T04:00:13;7.00;;;3.90;;
29044;SDS011;16133;49.486;12.176;2023-04-03T04:02:39;7.65;;;4.75;;
29044;SDS011;16133;49.486;12.176;2023-04-03T04:05:04;6.70;;;4.15;;
29044;SDS011;16133;49.486;12.176;2023-04-03T04:07:30;6.13;;;3.83;;
29044;SDS011;16133;49.486;12.176;2023-04-03T04:09:55;6.70;;;3.97;;
29044;SDS011;16133;49.486;12.176;2023-04-03T04:12:21;8.85;;;3.80;;
29044;SDS011;16133;49.486;12.176;2023-04-03T04:14:46;8.20;;;4.13;;
29044;SDS011;16133;49.486;12.176;2023-04-03T04:17:15;8.38;;;4.38;;
29044;SDS011;16133;49.486;12.176;2023-04-03T04:19:41;6.35;;;3.97;;
29044;SDS011;16133;49.486;12.176;2023-04-03T04:22:06;6.80;;;3.60;;
29044;SDS011;16133;49.486;12.176;2023-04-03T04:24:32;8.68;;;4.47;;
29044;SDS011;16133;49.486;12.176;2023-04-03T04:26:57;8.75;;;4.95;;
29044;SDS011;16133;49.486;12.176;2023-04-03T04:29:23;8.77;;;5.28;;
29044;SDS011;16133;49.486;12.176;2023-04-03T04:31:48;8.88;;;4.82;;
29044;SDS011;16133;49.486;12.176;2023-04-03T04:34:14;11.82;;;5.35;;
29044;SDS011;16133;49.486;12.176;2023-04-03T04:36:40;10.80;;;4.95;;
29044;SDS011;16133;49.486;12.176;2023-04-03T04:39:05;11.43;;;4.50;;
29044;SDS011;16133;49.486;12.176;2023-04-03T04:41:31;8.10;;;4.65;;
29044;SDS011;16133;49.486;12.176;2023-04-03T04:43:56;10.40;;;4.43;;
29044;SDS011;16133;49.486;12.176;2023-04-03T04:46:21;6.68;;;4.45;;
29044;SDS011;16133;49.486;12.176;2023-04-03T04:48:47;9.70;;;4.25;;
29044;SDS011;16133;49.486;12.176;2023-04-03T04:51:13;7.93;;;4.30;;
29044;SDS011;16133;49.486;12.176;2023-04-03T04:53:39;6.20;;;3.75;;
29044;SDS011;16133;49.486;12.176;2023-04-03T04:56:05;8.13;;;4.55;;
29044;SDS011;16133;49.486;12.176;2023-04-03T04:58:31;10.45;;;4.45;;
29044;SDS011;16133;49.486;12.176;2023-04-03T05:01:03;8.70;;;5.18;;
29044;SDS011;16133;49.486;12.176;2023-04-03T05:03:33;9.45;;;5.05;;
29044;SDS011;16133;49.486;12.176;2023-04-03T05:05:58;8.48;;;5.55;;
29044;SDS011;16133;49.486;12.176;2023-04-03T05:08:24;7.25;;;4.22;;
29044;SDS011;16133;49.486;12.176;2023-04-03T05:10:49;9.52;;;5.10;;
29044;SDS011;16133;49.486;12.176;2023-04-03T05:13:15;7.18;;;5.25;;
29044;SDS011;16133;49.486;12.176;2023-04-03T05:15:41;6.68;;;4.47;;
29044;SDS011;16133;49.486;12.176;2023-04-03T05:18:07;5.88;;;4.25;;
29044;SDS011;16133;49.486;12.176;2023-04-03T05:20:32;7.00;;;4.72;;
29044;SDS011;16133;49.486;12.176;2023-04-03T05:22:58;9.88;;;6.53;;
29044;SDS011;16133;49.486;12.176;2023-04-03T05:25:24;10.30;;;7.20;;
29044;SDS011;16133;49.486;12.176;2023-04-03T05:27:49;7.63;;;5.03;;
29044;SDS011;16133;49.486;12.176;2023-04-03T05:30:15;11.57;;;5.82;;
29044;SDS011;16133;49.486;12.176;2023-04-03T05:32:40;11.27;;;5.05;;
29044;SDS011;16133;49.486;12.176;2023-04-03T05:35:06;6.68;;;4.07;;
29044;SDS011;16133;49.486;12.176;2023-04-03T05:37:32;8.05;;;5.10;;
29044;SDS011;16133;49.486;12.176;2023-04-03T05:39:58;9.60;;;4.85;;
29044;SDS011;16133;49.486;12.176;2023-04-03T05:42:24;12.32;;;5.63;;
29044;SDS011;16133;49.486;12.176;2023-04-03T05:44:49;10.05;;;4.53;;
29044;SDS011;16133;49.486;12.176;2023-04-03T05:47:15;10.60;;;4.53;;
29044;SDS011;16133;49.486;12.176;2023-04-03T05:49:41;8.88;;;4.35;;
29044;SDS011;16133;49.486;12.176;2023-04-03T05:52:13;6.50;;;4.45;;
29044;SDS011;16133;49.486;12.176;2023-04-03T05:55:02;7.10;;;4.53;;
29044;SDS011;16133;49.486;12.176;2023-04-03T05:57:28;12.52;;;5.10;;
29044;SDS011;16133;49.486;12.176;2023-04-03T05:59:53;7.68;;;4.82;;
29044;SDS011;16133;49.486;12.176;2023-04-03T06:02:20;6.85;;;4.38;;
29044;SDS011;16133;49.486;12.176;2023-04-03T06:04:47;7.13;;;3.92;;
29044;SDS011;16133;49.486;12.176;2023-04-03T06:07:19;10.27;;;3.92;;
29044;SDS011;16133;49.486;12.176;2023-04-03T06:09:47;8.10;;;3.55;;
29044;SDS011;16133;49.486;12.176;2023-04-03T06:12:14;6.88;;;4.10;;
29044;SDS011;16133;49.486;12.176;2023-04-03T06:14:39;7.93;;;4.15;;
29044;SDS011;16133;49.486;12.176;2023-04-03T06:17:06;7.85;;;4.22;;
29044;SDS011;16133;49.486;12.176;2023-04-03T06:19:33;8.55;;;3.75;;
29044;SDS011;16133;49.486;12.176;2023-04-03T06:21:59;6.78;;;3.55;;
29044;SDS011;16133;49.486;12.176;2023-04-03T06:24:24;5.80;;;3.55;;
29044;SDS011;16133;49.486;12.176;2023-04-03T06:26:50;9.98;;;4.35;;
29044;SDS011;16133;49.486;12.176;2023-04-03T06:29:17;8.60;;;3.53;;
29044;SDS011;16133;49.486;12.176;2023-04-03T06:31:43;9.05;;;3.70;;
29044;SDS011;16133;49.486;12.176;2023-04-03T06:34:09;11.57;;;4.78;;
29044;SDS011;16133;49.486;12.176;2023-04-03T06:36:35;9.77;;;5.25;;
29044;SDS011;16133;49.486;12.176;2023-04-03T06:39:01;6.93;;;3.58;;
29044;SDS011;16133;49.486;12.176;2023-04-03T06:41:28;11.30;;;3.55;;
29044;SDS011;16133;49.486;12.176;2023-04-03T06:43:53;9.32;;;3.30;;
29044;SDS011;16133;49.486;12.176;2023-04-03T06:46:22;7.20;;;3.85;;
29044;SDS011;16133;49.486;12.176;2023-04-03T06:48:48;7.43;;;4.35;;
29044;SDS011;16133;49.486;12.176;2023-04-03T06:51:18;7.05;;;3.90;;
29044;SDS011;16133;49.486;12.176;2023-04-03T06:53:47;5.60;;;3.63;;
29044;SDS011;16133;49.486;12.176;2023-04-03T06:56:13;7.45;;;4.03;;
29044;SDS011;16133;49.486;12.176;2023-04-03T06:58:39;7.90;;;4.40;;
29044;SDS011;16133;49.486;12.176;2023-04-03T07:01:05;8.15;;;4.30;;
29044;SDS011;16133;49.486;12.176;2023-04-03T07:03:31;9.90;;;4.15;;
29044;SDS011;16133;49.486;12.176;2023-04-03T07:05:56;6.00;;;3.42;;
29044;SDS011;16133;49.486;12.176;2023-04-03T07:08:22;7.82;;;3.33;;
29044;SDS011;16133;49.486;12.176;2023-04-03T07:10:48;4.70;;;3.10;;
29044;SDS011;16133;49.486;12.176;2023-04-03T07:13:14;5.22;;;3.15;;
29044;SDS011;16133;49.486;12.176;2023-04-03T07:15:40;5.05;;;3.53;;
29044;SDS011;16133;49.486;12.176;2023-04-03T07:18:06;6.43;;;3.50;;
29044;SDS011;16133;49.486;12.176;2023-04-03T07:20:31;8.52;;;3.63;;
29044;SDS011;16133;49.486;12.176;2023-04-03T07:22:57;5.72;;;3.28;;
29044;SDS011;16133;49.486;12.176;2023-04-03T07:25:22;9.30;;;3.92;;
29044;SDS011;16133;49.486;12.176;2023-04-03T07:27:48;11.52;;;4.43;;
29044;SDS011;16133;49.486;12.176;2023-04-03T07:30:14;9.45;;;4.28;;
29044;SDS011;16133;49.486;12.176;2023-04-03T07:32:39;5.82;;;2.65;;
29044;SDS011;16133;49.486;12.176;2023-04-03T07:35:05;5.90;;;2.47;;
29044;SDS011;16133;49.486;12.176;2023-04-03T07:37:31;10.32;;;3.15;;
29044;SDS011;16133;49.486;12.176;2023-04-03T07:39:57;6.40;;;2.42;;
29044;SDS011;16133;49.486;12.176;2023-04-03T07:42:24;9.82;;;4.15;;
29044;SDS011;16133;49.486;12.176;2023-04-03T07:44:51;5.03;;;2.55;;
29044;SDS011;16133;49.486;12.176;2023-04-03T07:47:17;4.00;;;1.63;;
29044;SDS011;16133;49.486;12.176;2023-04-03T07:49:43;5.80;;;2.20;;
29044;SDS011;16133;49.486;12.176;2023-04-03T07:52:08;8.45;;;2.55;;
29044;SDS011;16133;49.486;12.176;2023-04-03T07:54:34;5.10;;;1.98;;
29044;SDS011;16133;49.486;12.176;2023-04-03T07:57:00;3.40;;;1.75;;
29044;SDS011;16133;49.486;12.176;2023-04-03T07:59:26;2.85;;;1.92;;
29044;SDS011;16133;49.486;12.176;2023-04-03T08:01:51;8.85;;;3.30;;
29044;SDS011;16133;49.486;12.176;2023-04-03T08:04:16;4.93;;;1.52;;
29044;SDS011;16133;49.486;12.176;2023-04-03T08:06:42;4.88;;;1.27;;
29044;SDS011;16133;49.486;12.176;2023-04-03T08:09:07;2.22;;;1.40;;
29044;SDS011;16133;49.486;12.176;2023-04-03T08:11:33;1.58;;;1.20;;
29044;SDS011;16133;49.486;12.176;2023-04-03T08:13:58;8.05;;;2.65;;
29044;SDS011;16133;49.486;12.176;2023-04-03T08:16:24;2.53;;;1.20;;
29044;SDS011;16133;49.486;12.176;2023-04-03T08:18:52;4.95;;;1.40;;
29044;SDS011;16133;49.486;12.176;2023-04-03T08:21:18;2.85;;;1.40;;
29044;SDS011;16133;49.486;12.176;2023-04-03T08:23:44;4.57;;;1.20;;
29044;SDS011;16133;49.486;12.176;2023-04-03T08:26:13;2.97;;;1.50;;
29044;SDS011;16133;49.486;12.176;2023-04-03T08:28:40;3.30;;;1.65;;
29044;SDS011;16133;49.486;12.176;2023-04-03T08:31:06;3.38;;;1.92;;
29044;SDS011;16133;49.486;12.176;2023-04-03T08:33:36;3.20;;;1.50;;
29044;SDS011;16133;49.486;12.176;2023-04-03T08:36:05;2.10;;;1.20;;
29044;SDS011;16133;49.486;12.176;2023-04-03T08:38:33;4.82;;;2.10;;
29044;SDS011;16133;49.486;12.176;2023-04-03T08:41:44;5.57;;;2.05;;
29044;SDS011;16133;49.486;12.176;2023-04-03T08:55:10;6.80;;;2.35;;
29044;SDS011;16133;49.486;12.176;2023-04-03T08:57:57;6.05;;;2.55;;
29044;SDS011;16133;49.486;12.176;2023-04-03T09:00:27;6.03;;;1.88;;
29044;SDS011;16133;49.486;12.176;2023-04-03T09:02:57;6.93;;;1.63;;
29044;SDS011;16133;49.486;12.176;2023-04-03T09:08:10;2.08;;;1.00;;
29044;SDS011;16133;49.486;12.176;2023-04-03T09:19:08;5.82;;;1.40;;
29044;SDS011;16133;49.486;12.176;2023-04-03T09:21:39;2.35;;;1.13;;
29044;SDS011;16133;49.486;12.176;2023-04-03T09:24:07;3.75;;;1.48;;
29044;SDS011;16133;49.486;12.176;2023-04-03T09:29:22;4.25;;;2.10;;
29044;SDS011;16133;49.486;12.176;2023-04-03T09:31:50;5.10;;;2.28;;
29044;SDS011;16133;49.486;12.176;2023-04-03T09:36:55;5.90;;;1.50;;
29044;SDS011;16133;49.486;12.176;2023-04-03T09:39:25;4.57;;;1.00;;
29044;SDS011;16133;49.486;12.176;2023-04-03T09:42:02;2.40;;;0.85;;
29044;SDS011;16133;49.486;12.176;2023-04-03T09:44:33;2.97;;;1.38;;
29044;SDS011;16133;49.486;12.176;2023-04-03T09:47:17;4.57;;;1.40;;
29044;SDS011;16133;49.486;12.176;2023-04-03T09:49:50;1.92;;;0.90;;
29044;SDS011;16133;49.486;12.176;2023-04-03T09:52:20;2.13;;;0.80;;
29044;SDS011;16133;49.486;12.176;2023-04-03T09:54:49;2.90;;;0.80;;
29044;SDS011;16133;49.486;12.176;2023-04-03T09:57:15;2.53;;;0.85;;
29044;SDS011;16133;49.486;12.176;2023-04-03T09:59:47;3.75;;;1.25;;
29044;SDS011;16133;49.486;12.176;2023-04-03T10:04:54;4.55;;;1.60;;
29044;SDS011;16133;49.486;12.176;2023-04-03T10:07:26;2.28;;;1.00;;
29044;SDS011;16133;49.486;12.176;2023-04-03T10:10:23;1.95;;;1.00;;
29044;SDS011;16133;49.486;12.176;2023-04-03T10:13:12;1.90;;;1.20;;
29044;SDS011;16133;49.486;12.176;2023-04-03T10:15:50;2.28;;;1.13;;
29044;SDS011;16133;49.486;12.176;2023-04-03T10:18:41;2.38;;;1.27;;
29044;SDS011;16133;49.486;12.176;2023-04-03T10:27:05;2.75;;;0.80;;
29044;SDS011;16133;49.486;12.176;2023-04-03T10:35:20;1.10;;;0.60;;
29044;SDS011;16133;49.486;12.176;2023-04-03T10:41:04;2.15;;;1.02;;
29044;SDS011;16133;49.486;12.176;2023-04-03T10:43:55;2.45;;;1.45;;
29044;SDS011;16133;49.486;12.176;2023-04-03T10:49:25;1.90;;;0.80;;
29044;SDS011;16133;49.486;12.176;2023-04-03T10:51:57;2.15;;;0.90;;
29044;SDS011;16133;49.486;12.176;2023-04-03T10:54:36;1.42;;;1.10;;
29044;SDS011;16133;49.486;12.176;2023-04-03T10:57:10;6.60;;;1.30;;
29044;SDS011;16133;49.486;12.176;2023-04-03T10:59:47;1.63;;;0.77;;
29044;SDS011;16133;49.486;12.176;2023-04-03T11:05:15;2.72;;;1.00;;
29044;SDS011;16133;49.486;12.176;2023-04-03T11:07:57;3.42;;;1.08;;
29044;SDS011;16133;49.486;12.176;2023-04-03T11:12:58;2.03;;;1.38;;
29044;SDS011;16133;49.486;12.176;2023-04-03T11:15:33;2.03;;;1.13;;
29044;SDS011;16133;49.486;12.176;2023-04-03T11:18:13;1.77;;;1.20;;
29044;SDS011;16133;49.486;12.176;2023-04-03T11:20:46;1.55;;;0.90;;
29044;SDS011;16133;49.486;12.176;2023-04-03T11:23:26;1.70;;;0.90;;
29044;SDS011;16133;49.486;12.176;2023-04-03T11:25:56;1.45;;;1.35;;
29044;SDS011;16133;49.486;12.176;2023-04-03T11:28:31;1.27;;;0.90;;
29044;SDS011;16133;49.486;12.176;2023-04-03T11:31:19;4.10;;;1.55;;
29044;SDS011;16133;49.486;12.176;2023-04-03T11:34:05;4.13;;;1.10;;
29044;SDS011;16133;49.486;12.176;2023-04-03T11:36:41;2.00;;;0.85;;
29044;SDS011;16133;49.486;12.176;2023-04-03T11:44:44;5.10;;;0.98;;
29044;SDS011;16133;49.486;12.176;2023-04-03T11:47:10;1.25;;;0.80;;
29044;SDS011;16133;49.486;12.176;2023-04-03T11:52:58;2.03;;;1.10;;
29044;SDS011;16133;49.486;12.176;2023-04-03T12:16:20;5.07;;;1.00;;
29044;SDS011;16133;49.486;12.176;2023-04-03T12:21:20;2.78;;;1.67;;
29044;SDS011;16133;49.486;12.176;2023-04-03T12:23:58;14.52;;;7.88;;
29044;SDS011;16133;49.486;12.176;2023-04-03T12:26:24;9.35;;;3.67;;
29044;SDS011;16133;49.486;12.176;2023-04-03T12:28:53;3.70;;;2.20;;
29044;SDS011;16133;49.486;12.176;2023-04-03T12:31:20;4.28;;;2.53;;
29044;SDS011;16133;49.486;12.176;2023-04-03T12:36:25;5.75;;;2.70;;
29044;SDS011;16133;49.486;12.176;2023-04-03T12:41:51;9.32;;;2.38;;
29044;SDS011;16133;49.486;12.176;2023-04-03T12:44:40;6.53;;;2.63;;
29044;SDS011;16133;49.486;12.176;2023-04-03T12:47:49;5.50;;;2.47;;
29044;SDS011;16133;49.486;12.176;2023-04-03T12:55:36;5.75;;;2.28;;
29044;SDS011;16133;49.486;12.176;2023-04-03T12:58:15;8.25;;;2.40;;
29044;SDS011;16133;49.486;12.176;2023-04-03T13:00:59;12.73;;;6.80;;
29044;SDS011;16133;49.486;12.176;2023-04-03T13:03:25;10.25;;;3.42;;
29044;SDS011;16133;49.486;12.176;2023-04-03T13:05:55;5.40;;;2.22;;
29044;SDS011;16133;49.486;12.176;2023-04-03T13:08:24;6.20;;;2.38;;
29044;SDS011;16133;49.486;12.176;2023-04-03T13:11:11;9.00;;;2.90;;
29044;SDS011;16133;49.486;12.176;2023-04-03T13:13:37;6.53;;;2.33;;
29044;SDS011;16133;49.486;12.176;2023-04-03T13:16:10;3.30;;;1.60;;
29044;SDS011;16133;49.486;12.176;2023-04-03T13:18:38;4.93;;;1.60;;
29044;SDS011;16133;49.486;12.176;2023-04-03T13:21:15;31.55;;;10.82;;
29044;SDS011;16133;49.486;12.176;2023-04-03T13:23:45;4.05;;;1.35;;
29044;SDS011;16133;49.486;12.176;2023-04-03T13:26:14;2.60;;;1.42;;
29044;SDS011;16133;49.486;12.176;2023-04-03T13:28:41;4.70;;;1.75;;
29044;SDS011;16133;49.486;12.176;2023-04-03T13:36:30;2.20;;;0.90;;
29044;SDS011;16133;49.486;12.176;2023-04-03T13:39:17;2.65;;;1.42;;
29044;SDS011;16133;49.486;12.176;2023-04-03T13:41:50;3.63;;;1.20;;
29044;SDS011;16133;49.486;12.176;2023-04-03T13:46:54;2.47;;;1.50;;
29044;SDS011;16133;49.486;12.176;2023-04-03T13:49:27;6.25;;;1.83;;
29044;SDS011;16133;49.486;12.176;2023-04-03T13:51:58;8.73;;;2.20;;
29044;SDS011;16133;49.486;12.176;2023-04-03T13:54:32;3.40;;;1.45;;
29044;SDS011;16133;49.486;12.176;2023-04-03T13:57:00;5.30;;;1.30;;
29044;SDS011;16133;49.486;12.176;2023-04-03T13:59:30;3.10;;;1.70;;
29044;SDS011;16133;49.486;12.176;2023-04-03T14:04:30;2.17;;;1.30;;
29044;SDS011;16133;49.486;12.176;2023-04-03T14:06:57;2.83;;;0.85;;
29044;SDS011;16133;49.486;12.176;2023-04-03T14:09:24;6.03;;;1.55;;
29044;SDS011;16133;49.486;12.176;2023-04-03T14:11:55;2.15;;;1.10;;
29044;SDS011;16133;49.486;12.176;2023-04-03T14:14:26;1.40;;;1.02;;
29044;SDS011;16133;49.486;12.176;2023-04-03T14:16:56;2.47;;;1.30;;
29044;SDS011;16133;49.486;12.176;2023-04-03T14:19:34;3.38;;;1.55;;
29044;SDS011;16133;49.486;12.176;2023-04-03T14:22:03;4.85;;;1.63;;
29044;SDS011;16133;49.486;12.176;2023-04-03T14:24:37;7.63;;;2.08;;
29044;SDS011;16133;49.486;12.176;2023-04-03T14:27:05;4.43;;;1.20;;
29044;SDS011;16133;49.486;12.176;2023-04-03T14:29:40;3.78;;;1.48;;
29044;SDS011;16133;49.486;12.176;2023-04-03T14:32:06;3.47;;;1.83;;
29044;SDS011;16133;49.486;12.176;2023-04-03T14:34:31;3.78;;;1.50;;
29044;SDS011;16133;49.486;12.176;2023-04-03T14:36:56;4.40;;;1.52;;
29044;SDS011;16133;49.486;12.176;2023-04-03T14:39:21;7.13;;;1.45;;
29044;SDS011;16133;49.486;12.176;2023-04-03T14:41:47;2.13;;;1.02;;
29044;SDS011;16133;49.486;12.176;2023-04-03T14:44:12;4.45;;;1.45;;
29044;SDS011;16133;49.486;12.176;2023-04-03T14:46:39;3.60;;;1.73;;
29044;SDS011;16133;49.486;12.176;2023-04-03T14:49:14;5.38;;;2.10;;
29044;SDS011;16133;49.486;12.176;2023-04-03T14:51:43;3.17;;;1.33;;
29044;SDS011;16133;49.486;12.176;2023-04-03T14:54:16;2.15;;;1.60;;
29044;SDS011;16133;49.486;12.176;2023-04-03T14:56:43;3.83;;;1.77;;
29044;SDS011;16133;49.486;12.176;2023-04-03T14:59:09;4.75;;;1.55;;
29044;SDS011;16133;49.486;12.176;2023-04-03T15:01:36;4.07;;;1.40;;
29044;SDS011;16133;49.486;12.176;2023-04-03T15:04:05;4.05;;;1.60;;
29044;SDS011;16133;49.486;12.176;2023-04-03T15:06:40;2.70;;;1.67;;
29044;SDS011;16133;49.486;12.176;2023-04-03T15:09:22;2.33;;;1.45;;
29044;SDS011;16133;49.486;12.176;2023-04-03T15:11:50;4.82;;;1.63;;
29044;SDS011;16133;49.486;12.176;2023-04-03T15:14:17;6.63;;;1.33;;
29044;SDS011;16133;49.486;12.176;2023-04-03T15:16:43;3.70;;;1.42;;
29044;SDS011;16133;49.486;12.176;2023-04-03T15:19:08;5.00;;;2.20;;
29044;SDS011;16133;49.486;12.176;2023-04-03T15:21:34;4.43;;;2.15;;
29044;SDS011;16133;49.486;12.176;2023-04-03T15:24:00;3.35;;;1.70;;
29044;SDS011;16133;49.486;12.176;2023-04-03T15:26:25;2.45;;;1.50;;
29044;SDS011;16133;49.486;12.176;2023-04-03T15:28:50;6.30;;;1.73;;
29044;SDS011;16133;49.486;12.176;2023-04-03T15:31:16;3.28;;;1.60;;
29044;SDS011;16133;49.486;12.176;2023-04-03T15:33:41;2.42;;;1.45;;
29044;SDS011;16133;49.486;12.176;2023-04-03T15:36:07;2.55;;;1.60;;
29044;SDS011;16133;49.486;12.176;2023-04-03T15:38:32;6.93;;;1.88;;
29044;SDS011;16133;49.486;12.176;2023-04-03T15:40:58;2.55;;;1.73;;
29044;SDS011;16133;49.486;12.176;2023-04-03T15:43:23;2.50;;;1.55;;
29044;SDS011;16133;49.486;12.176;2023-04-03T15:45:49;6.72;;;1.90;;
29044;SDS011;16133;49.486;12.176;2023-04-03T15:48:15;5.03;;;2.00;;
29044;SDS011;16133;49.486;12.176;2023-04-03T15:50:41;5.60;;;2.58;;
29044;SDS011;16133;49.486;12.176;2023-04-03T15:53:07;5.40;;;2.45;;
29044;SDS011;16133;49.486;12.176;2023-04-03T15:55:33;5.88;;;2.72;;
29044;SDS011;16133;49.486;12.176;2023-04-03T15:58:00;3.92;;;2.22;;
29044;SDS011;16133;49.486;12.176;2023-04-03T16:00:26;2.25;;;1.58;;
29044;SDS011;16133;49.486;12.176;2023-04-03T16:02:54;5.30;;;2.58;;
29044;SDS011;16133;49.486;12.176;2023-04-03T16:05:22;4.20;;;1.83;;
29044;SDS011;16133;49.486;12.176;2023-04-03T16:07:48;3.15;;;1.85;;
29044;SDS011;16133;49.486;12.176;2023-04-03T16:10:14;6.32;;;2.20;;
29044;SDS011;16133;49.486;12.176;2023-04-03T16:12:43;2.95;;;2.00;;
29044;SDS011;16133;49.486;12.176;2023-04-03T16:15:09;3.80;;;2.15;;
29044;SDS011;16133;49.486;12.176;2023-04-03T16:17:35;13.98;;;3.05;;
29044;SDS011;16133;49.486;12.176;2023-04-03T16:20:03;2.72;;;2.05;;
29044;SDS011;16133;49.486;12.176;2023-04-03T16:22:30;4.90;;;1.77;;
29044;SDS011;16133;49.486;12.176;2023-04-03T16:24:56;7.85;;;2.30;;
29044;SDS011;16133;49.486;12.176;2023-04-03T16:27:22;2.58;;;1.70;;
29044;SDS011;16133;49.486;12.176;2023-04-03T16:29:52;5.68;;;2.05;;
29044;SDS011;16133;49.486;12.176;2023-04-03T16:32:17;5.57;;;1.85;;